createdAt,value
2018-10-17T00:01:25.637Z,11.17
2018-10-17T00:03:53.338Z,11.13
2018-10-17T00:06:21.094Z,10.33
2018-10-17T00:08:48.835Z,14.30
2018-10-17T00:11:16.569Z,12.77
2018-10-17T00:13:44.282Z,13.87
2018-10-17T00:16:12.045Z,16.13
2018-10-17T00:18:39.755Z,20.47
2018-10-17T00:21:07.468Z,23.97
2018-10-17T00:23:35.309Z,20.23
2018-10-17T00:26:04.046Z,19.00
2018-10-17T00:28:32.167Z,20.40
2018-10-17T00:30:59.937Z,15.77
2018-10-17T00:33:27.625Z,14.57
2018-10-17T00:35:55.332Z,15.20
2018-10-17T00:38:23.154Z,14.70
2018-10-17T00:40:50.862Z,13.50
2018-10-17T00:43:18.653Z,16.70
2018-10-17T00:45:46.303Z,17.40
2018-10-17T00:48:14.009Z,19.03
2018-10-17T00:50:41.701Z,12.70
2018-10-17T00:53:09.478Z,11.37
2018-10-17T00:55:37.146Z,13.20
2018-10-17T00:58:05.040Z,11.37
2018-10-17T01:00:32.740Z,10.73
2018-10-17T01:03:00.454Z,14.90
2018-10-17T01:05:28.168Z,12.07
2018-10-17T01:07:55.877Z,10.97
2018-10-17T01:10:23.590Z,11.37
2018-10-17T01:12:51.328Z,11.40
2018-10-17T01:15:19.045Z,12.37
2018-10-17T01:17:46.754Z,12.30
2018-10-17T01:20:14.497Z,11.47
2018-10-17T01:22:42.257Z,10.63
2018-10-17T01:25:10.022Z,13.47
2018-10-17T01:27:37.698Z,12.10
2018-10-17T01:30:10.906Z,13.97
2018-10-17T01:32:38.597Z,11.80
2018-10-17T01:35:06.891Z,10.73
2018-10-17T01:37:34.653Z,10.60
2018-10-17T01:40:02.369Z,10.60
2018-10-17T01:42:30.076Z,15.20
2018-10-17T01:44:57.757Z,13.30
2018-10-17T01:47:25.464Z,12.17
2018-10-17T01:49:53.157Z,9.73
2018-10-17T01:52:20.851Z,15.77
2018-10-17T01:54:48.570Z,8.90
2018-10-17T01:57:16.269Z,12.10
2018-10-17T01:59:43.977Z,15.90
2018-10-17T02:02:11.677Z,10.80
2018-10-17T02:04:39.390Z,9.57
2018-10-17T02:07:07.167Z,12.03
2018-10-17T02:09:34.821Z,13.40
2018-10-17T02:12:02.549Z,11.73
2018-10-17T02:14:30.233Z,12.10
2018-10-17T02:16:57.956Z,10.93
2018-10-17T02:19:25.663Z,15.67
2018-10-17T02:21:53.362Z,13.50
2018-10-17T02:24:21.053Z,11.20
2018-10-17T02:26:48.789Z,12.03
2018-10-17T02:29:16.555Z,9.77
2018-10-17T02:31:44.225Z,11.87
2018-10-17T02:34:11.973Z,12.43
2018-10-17T02:36:39.682Z,12.50
2018-10-17T02:39:08.975Z,10.43
2018-10-17T02:41:36.762Z,13.67
2018-10-17T02:44:05.021Z,14.30
2018-10-17T02:46:32.742Z,13.47
2018-10-17T02:49:00.537Z,13.60
2018-10-17T02:51:28.271Z,13.80
2018-10-17T02:53:55.977Z,14.63
2018-10-17T02:56:23.702Z,14.60
2018-10-17T02:58:51.400Z,12.90
2018-10-17T03:01:19.152Z,12.57
2018-10-17T03:03:46.890Z,11.97
2018-10-17T03:06:14.594Z,12.07
2018-10-17T03:08:42.311Z,13.00
2018-10-17T03:11:10.230Z,14.70
2018-10-17T03:13:38.346Z,16.30
2018-10-17T03:16:06.066Z,15.13
2018-10-17T03:18:33.890Z,15.00
2018-10-17T03:21:01.635Z,14.80
2018-10-17T03:23:29.350Z,15.07
2018-10-17T03:25:57.057Z,16.53
2018-10-17T03:28:24.774Z,14.03
2018-10-17T03:30:52.493Z,13.23
2018-10-17T03:33:20.267Z,15.27
2018-10-17T03:35:48.026Z,11.17
2018-10-17T03:38:15.786Z,15.30
2018-10-17T03:40:43.569Z,12.87
2018-10-17T03:43:11.489Z,11.40
2018-10-17T03:45:39.154Z,13.33
2018-10-17T03:48:06.858Z,13.40
2018-10-17T03:50:35.389Z,16.83
2018-10-17T03:53:03.338Z,13.23
2018-10-17T03:55:31.105Z,14.07
2018-10-17T03:57:58.825Z,17.33
2018-10-17T04:00:26.540Z,12.73
2018-10-17T04:02:54.297Z,12.97
2018-10-17T04:05:21.986Z,12.93
2018-10-17T04:07:49.722Z,14.90
2018-10-17T04:10:17.406Z,14.90
2018-10-17T04:12:45.138Z,14.77
2018-10-17T04:15:12.882Z,18.13
2018-10-17T04:17:40.630Z,13.73
2018-10-17T04:20:08.347Z,13.37
2018-10-17T04:22:36.134Z,15.17
2018-10-17T04:25:15.482Z,18.37
2018-10-17T04:27:43.171Z,18.37
2018-10-17T04:30:10.882Z,17.00
2018-10-17T04:32:38.584Z,22.67
2018-10-17T04:35:06.380Z,34.90
2018-10-17T04:37:34.091Z,37.53
2018-10-17T04:40:01.809Z,26.40
2018-10-17T04:42:29.549Z,21.50
2018-10-17T04:44:57.254Z,17.97
2018-10-17T04:47:25.005Z,22.37
2018-10-17T04:49:52.723Z,18.03
2018-10-17T04:52:20.420Z,18.33
2018-10-17T04:54:48.162Z,18.07
2018-10-17T04:57:15.885Z,21.47
2018-10-17T04:59:43.598Z,16.20
2018-10-17T05:02:11.300Z,20.50
2018-10-17T05:04:39.083Z,16.37
2018-10-17T05:07:06.827Z,17.27
2018-10-17T05:09:34.554Z,14.53
2018-10-17T05:12:02.289Z,17.50
2018-10-17T05:14:30.014Z,18.03
2018-10-17T05:16:57.807Z,18.77
2018-10-17T05:19:25.664Z,15.50
2018-10-17T05:21:53.414Z,25.10
2018-10-17T05:24:21.117Z,18.00
2018-10-17T05:26:48.962Z,20.40
2018-10-17T05:29:16.968Z,26.83
2018-10-17T05:31:44.735Z,19.67
2018-10-17T05:34:12.526Z,18.57
2018-10-17T05:36:40.245Z,22.50
2018-10-17T05:39:08.369Z,18.43
2018-10-17T05:41:36.117Z,15.77
2018-10-17T05:44:04.110Z,17.73
2018-10-17T05:46:31.810Z,20.73
2018-10-17T05:48:59.561Z,21.00
2018-10-17T05:51:27.274Z,21.30
2018-10-17T05:53:55.020Z,23.43
2018-10-17T05:56:22.798Z,24.13
2018-10-17T05:58:50.551Z,22.07
2018-10-17T06:01:18.365Z,18.27
2018-10-17T06:03:46.051Z,16.57
2018-10-17T06:06:13.790Z,17.67
2018-10-17T06:08:41.497Z,16.53
2018-10-17T06:11:09.223Z,16.93
2018-10-17T06:13:36.938Z,18.20
2018-10-17T06:16:04.742Z,14.27
2018-10-17T06:18:32.446Z,15.93
2018-10-17T06:21:00.282Z,18.13
2018-10-17T06:23:28.022Z,13.53
2018-10-17T06:25:55.771Z,11.40
2018-10-17T06:28:23.535Z,10.53
2018-10-17T06:30:51.304Z,10.97
2018-10-17T06:33:19.145Z,13.73
2018-10-17T06:35:46.861Z,14.90
2018-10-17T06:38:14.714Z,16.13
2018-10-17T06:40:42.411Z,13.10
2018-10-17T06:43:10.178Z,11.57
2018-10-17T06:45:37.968Z,10.40
2018-10-17T06:48:05.935Z,11.90
2018-10-17T06:50:33.651Z,11.33
2018-10-17T06:53:01.367Z,10.57
2018-10-17T06:55:29.101Z,8.97
2018-10-17T06:57:57.641Z,9.43
2018-10-17T07:00:25.375Z,13.83
2018-10-17T07:02:53.103Z,9.33
2018-10-17T07:05:20.856Z,9.07
2018-10-17T07:07:48.598Z,9.27
2018-10-17T07:10:17.249Z,11.37
2018-10-17T07:12:44.961Z,12.10
2018-10-17T07:15:12.727Z,16.80
2018-10-17T07:17:40.450Z,8.37
2018-10-17T07:20:08.806Z,7.63
2018-10-17T07:22:36.517Z,13.47
2018-10-17T07:25:04.728Z,14.57
2018-10-17T07:27:32.401Z,12.97
2018-10-17T07:30:00.123Z,9.40
2018-10-17T07:32:27.876Z,9.23
2018-10-17T07:34:55.613Z,10.83
2018-10-17T07:37:23.325Z,9.33
2018-10-17T07:39:51.113Z,11.17
2018-10-17T07:42:18.931Z,12.07
2018-10-17T07:44:46.570Z,8.43
2018-10-17T07:47:14.303Z,9.50
2018-10-17T07:49:42.013Z,10.40
2018-10-17T07:52:09.799Z,10.30
2018-10-17T07:54:37.539Z,12.07
2018-10-17T07:57:05.738Z,9.93
2018-10-17T07:59:33.518Z,11.13
2018-10-17T08:02:01.222Z,12.50
2018-10-17T08:04:29.002Z,9.13
2018-10-17T08:06:56.713Z,11.03
2018-10-17T08:09:24.398Z,10.77
2018-10-17T08:11:52.116Z,9.33
2018-10-17T08:14:20.700Z,7.33
2018-10-17T08:16:48.435Z,7.67
2018-10-17T08:19:16.151Z,7.90
2018-10-17T08:21:43.872Z,7.47
2018-10-17T08:24:11.721Z,12.43
2018-10-17T08:26:39.447Z,8.77
2018-10-17T08:29:07.173Z,9.43
2018-10-17T08:31:34.886Z,10.23
2018-10-17T08:34:02.684Z,10.40
2018-10-17T08:36:30.631Z,9.77
2018-10-17T08:38:58.170Z,9.50
2018-10-17T08:41:25.923Z,11.80
2018-10-17T08:43:53.722Z,8.07
2018-10-17T08:46:21.411Z,7.47
2018-10-17T08:48:49.150Z,9.23
2018-10-17T08:51:16.870Z,8.60
2018-10-17T08:53:44.681Z,7.00
2018-10-17T08:56:12.467Z,10.37
2018-10-17T08:58:40.527Z,9.70
2018-10-17T09:01:08.370Z,8.73
2018-10-17T09:03:36.106Z,9.17
2018-10-17T09:06:03.842Z,9.90
2018-10-17T09:08:31.609Z,9.17
2018-10-17T09:10:59.334Z,9.93
2018-10-17T09:13:27.123Z,13.23
2018-10-17T09:15:54.818Z,12.93
2018-10-17T09:18:22.571Z,9.83
2018-10-17T09:20:50.542Z,9.67
2018-10-17T09:23:18.050Z,10.27
2018-10-17T09:25:45.878Z,12.77
2018-10-17T09:28:13.645Z,13.47
2018-10-17T09:30:41.411Z,11.77
2018-10-17T09:33:09.074Z,9.87
2018-10-17T09:35:36.821Z,10.03
2018-10-17T09:38:04.606Z,10.40
2018-10-17T09:40:32.333Z,10.83
2018-10-17T09:43:00.053Z,10.33
2018-10-17T09:45:27.766Z,10.23
2018-10-17T09:47:55.534Z,7.87
2018-10-17T09:50:23.309Z,9.57
2018-10-17T09:52:51.061Z,13.27
2018-10-17T09:55:18.807Z,8.83
2018-10-17T09:57:46.539Z,9.57
2018-10-17T10:00:19.990Z,8.80
2018-10-17T10:02:47.705Z,9.33
2018-10-17T10:05:15.442Z,10.57
2018-10-17T10:07:43.170Z,10.83
2018-10-17T10:10:10.933Z,9.23
2018-10-17T10:12:38.647Z,11.03
2018-10-17T10:15:06.451Z,8.90
2018-10-17T10:17:34.457Z,11.77
2018-10-17T10:20:02.197Z,8.93
2018-10-17T10:22:30.208Z,12.40
2018-10-17T10:24:58.045Z,11.73
2018-10-17T10:27:25.883Z,12.23
2018-10-17T10:29:53.729Z,11.40
2018-10-17T10:32:21.384Z,10.73
2018-10-17T10:34:49.155Z,12.17
2018-10-17T10:37:17.142Z,14.57
2018-10-17T10:39:44.875Z,14.70
2018-10-17T10:42:12.777Z,10.47
2018-10-17T10:44:40.562Z,14.47
2018-10-17T10:47:08.370Z,13.73
2018-10-17T10:49:36.102Z,10.17
2018-10-17T10:52:03.884Z,12.10
2018-10-17T10:54:31.587Z,15.20
2018-10-17T10:56:59.289Z,9.97
2018-10-17T10:59:27.182Z,11.27
2018-10-17T11:01:54.851Z,22.87
2018-10-17T11:04:22.577Z,16.90
2018-10-17T11:06:50.316Z,16.23
2018-10-17T11:09:18.055Z,13.10
2018-10-17T11:11:45.778Z,19.53
2018-10-17T11:14:13.621Z,16.90
2018-10-17T11:16:41.236Z,20.13
2018-10-17T11:19:08.961Z,18.33
2018-10-17T11:21:36.671Z,17.67
2018-10-17T11:24:04.629Z,19.77
2018-10-17T11:26:32.350Z,15.97
2018-10-17T11:29:00.117Z,17.70
2018-10-17T11:31:27.925Z,19.23
2018-10-17T11:33:55.637Z,22.97
2018-10-17T11:36:23.376Z,16.73
2018-10-17T11:38:51.136Z,15.93
2018-10-17T11:41:19.008Z,17.60
2018-10-17T11:43:46.621Z,18.03
2018-10-17T11:46:14.447Z,14.90
2018-10-17T11:48:42.162Z,17.63
2018-10-17T11:51:09.923Z,15.27
2018-10-17T11:53:37.680Z,14.30
2018-10-17T11:56:05.594Z,18.37
2018-10-17T11:58:33.490Z,15.97
2018-10-17T12:01:01.376Z,12.70
2018-10-17T12:03:29.467Z,18.37
2018-10-17T12:05:57.464Z,19.30
2018-10-17T12:08:25.179Z,14.30
2018-10-17T12:10:53.054Z,17.67
2018-10-17T12:13:20.919Z,15.50
2018-10-17T12:15:48.785Z,17.43
2018-10-17T12:18:16.779Z,15.50
2018-10-17T12:20:44.623Z,13.03
2018-10-17T12:23:12.526Z,18.37
2018-10-17T12:25:40.425Z,20.30
2018-10-17T12:28:08.405Z,21.80
2018-10-17T12:30:36.182Z,21.60
2018-10-17T12:33:04.172Z,17.93
2018-10-17T12:35:32.102Z,24.43
2018-10-17T12:37:59.985Z,15.00
2018-10-17T12:40:27.905Z,19.87
2018-10-17T12:42:55.763Z,15.10
2018-10-17T12:45:23.683Z,19.67
2018-10-17T12:47:51.663Z,17.27
2018-10-17T12:50:19.670Z,13.23
2018-10-17T12:52:47.545Z,12.03
2018-10-17T12:55:15.439Z,14.97
2018-10-17T12:57:43.314Z,9.67
2018-10-17T13:00:11.262Z,14.30
2018-10-17T13:02:39.503Z,16.53
2018-10-17T13:05:08.628Z,16.80
2018-10-17T13:07:36.534Z,15.43
2018-10-17T13:10:04.902Z,18.47
2018-10-17T13:12:32.782Z,16.90
2018-10-17T13:15:00.720Z,19.20
2018-10-17T13:17:28.649Z,21.93
2018-10-17T13:19:56.527Z,17.40
2018-10-17T13:22:24.387Z,15.77
2018-10-17T13:24:52.284Z,14.17
2018-10-17T13:27:20.158Z,13.90
2018-10-17T13:29:48.042Z,13.90
2018-10-17T13:32:15.986Z,14.63
2018-10-17T13:34:43.902Z,13.27
2018-10-17T13:37:11.870Z,12.93
2018-10-17T13:39:39.719Z,10.97
2018-10-17T13:42:07.680Z,14.20
2018-10-17T13:44:35.560Z,10.93
2018-10-17T13:47:03.571Z,14.23
2018-10-17T13:49:31.566Z,14.57
2018-10-17T13:51:59.447Z,14.10
2018-10-17T13:54:27.360Z,11.27
2018-10-17T13:56:55.286Z,13.30
2018-10-17T13:59:23.369Z,15.40
2018-10-17T14:01:51.135Z,12.47
2018-10-17T14:04:19.019Z,12.53
2018-10-17T14:06:46.899Z,16.60
2018-10-17T14:09:14.855Z,15.43
2018-10-17T14:11:42.886Z,16.37
2018-10-17T14:14:10.670Z,15.23
2018-10-17T14:16:38.555Z,15.17
2018-10-17T14:19:06.444Z,12.17
2018-10-17T14:21:34.314Z,13.67
2018-10-17T14:24:02.208Z,9.77
2018-10-17T14:26:30.093Z,13.07
2018-10-17T14:28:57.985Z,9.90
2018-10-17T14:31:25.866Z,10.60
2018-10-17T14:33:53.771Z,9.80
2018-10-17T14:36:21.680Z,12.07
2018-10-17T14:38:49.558Z,13.03
2018-10-17T14:41:17.539Z,11.03
2018-10-17T14:43:45.415Z,15.53
2018-10-17T14:46:13.290Z,15.40
2018-10-17T14:48:41.174Z,12.80
2018-10-17T14:51:09.086Z,16.07
2018-10-17T14:53:36.989Z,14.03
2018-10-17T14:56:04.992Z,16.80
2018-10-17T14:58:33.182Z,13.77
2018-10-17T15:01:01.060Z,19.40
2018-10-17T15:03:28.960Z,14.83
2018-10-17T15:05:57.214Z,16.53
2018-10-17T15:08:25.075Z,18.20
2018-10-17T15:10:53.194Z,11.30
2018-10-17T15:13:20.870Z,11.27
2018-10-17T15:15:48.783Z,12.13
2018-10-17T15:18:17.139Z,16.37
2018-10-17T15:20:44.967Z,14.77
2018-10-17T15:23:13.268Z,17.00
2018-10-17T15:25:41.019Z,16.57
2018-10-17T15:28:08.726Z,12.60
2018-10-17T15:30:36.442Z,13.27
2018-10-17T15:33:04.386Z,16.67
2018-10-17T15:35:32.211Z,14.60
2018-10-17T15:37:59.979Z,17.57
2018-10-17T15:40:27.712Z,16.67
2018-10-17T15:42:55.473Z,18.00
2018-10-17T15:45:23.208Z,14.47
2018-10-17T15:47:50.992Z,17.90
2018-10-17T15:50:18.747Z,19.10
2018-10-17T15:52:46.463Z,19.07
2018-10-17T15:55:14.197Z,19.63
2018-10-17T15:57:41.986Z,22.47
2018-10-17T16:00:10.742Z,20.33
2018-10-17T16:02:38.513Z,25.43
2018-10-17T16:05:08.391Z,29.50
2018-10-17T16:07:36.111Z,27.93
2018-10-17T16:10:03.935Z,37.10
2018-10-17T16:12:31.687Z,40.30
2018-10-17T16:14:59.507Z,41.47
2018-10-17T16:17:27.299Z,40.27
2018-10-17T16:19:55.053Z,34.90
2018-10-17T16:22:22.777Z,37.50
2018-10-17T16:24:50.516Z,33.20
2018-10-17T16:27:18.329Z,35.43
2018-10-17T16:29:46.071Z,33.23
2018-10-17T16:32:13.827Z,39.90
2018-10-17T16:34:41.579Z,36.17
2018-10-17T16:37:09.318Z,35.27
2018-10-17T16:39:37.047Z,38.43
2018-10-17T16:42:05.324Z,38.07
2018-10-17T16:44:33.043Z,28.97
2018-10-17T16:47:00.783Z,28.60
2018-10-17T16:49:28.534Z,32.77
2018-10-17T16:51:56.319Z,31.87
2018-10-17T16:54:24.266Z,30.07
2018-10-17T16:56:52.052Z,27.30
2018-10-17T16:59:19.786Z,30.97
2018-10-17T17:01:47.566Z,32.97
2018-10-17T17:04:15.287Z,35.20
2018-10-17T17:06:43.037Z,33.10
2018-10-17T17:09:11.492Z,33.17
2018-10-17T17:11:39.232Z,37.30
2018-10-17T17:14:07.010Z,36.53
2018-10-17T17:16:34.857Z,36.30
2018-10-17T17:19:02.623Z,37.30
2018-10-17T17:21:30.371Z,38.43
2018-10-17T17:23:58.163Z,44.47
2018-10-17T17:26:25.916Z,44.60
2018-10-17T17:28:53.617Z,38.67
2018-10-17T17:31:21.375Z,39.80
2018-10-17T17:33:49.111Z,32.10
2018-10-17T17:36:16.876Z,36.30
2018-10-17T17:38:44.693Z,35.43
2018-10-17T17:41:12.410Z,38.07
2018-10-17T17:43:40.157Z,44.83
2018-10-17T17:46:07.958Z,39.03
2018-10-17T17:48:35.621Z,35.97
2018-10-17T17:51:03.368Z,34.63
2018-10-17T17:53:31.085Z,46.33
2018-10-17T17:55:58.815Z,39.33
2018-10-17T17:58:26.928Z,40.20
2018-10-17T18:00:54.583Z,36.67
2018-10-17T18:03:22.307Z,40.30
2018-10-17T18:05:50.031Z,42.83
2018-10-17T18:08:17.880Z,37.03
2018-10-17T18:10:45.925Z,41.97
2018-10-17T18:13:13.618Z,41.53
2018-10-17T18:15:41.325Z,40.40
2018-10-17T18:18:09.065Z,46.63
2018-10-17T18:20:36.802Z,43.03
2018-10-17T18:23:05.215Z,32.97
2018-10-17T18:25:33.202Z,43.90
2018-10-17T18:28:01.112Z,32.43
2018-10-17T18:30:28.758Z,40.00
2018-10-17T18:32:57.266Z,34.73
2018-10-17T18:35:25.089Z,38.57
2018-10-17T18:37:52.795Z,36.53
2018-10-17T18:40:20.514Z,38.57
2018-10-17T18:42:48.249Z,39.90
2018-10-17T18:45:16.025Z,38.37
2018-10-17T18:47:43.767Z,36.03
2018-10-17T18:50:11.657Z,38.63
2018-10-17T18:52:39.386Z,33.47
2018-10-17T18:55:07.835Z,38.27
2018-10-17T18:57:35.548Z,31.70
2018-10-17T19:00:03.446Z,33.90
2018-10-17T19:02:31.153Z,31.97
2018-10-17T19:04:58.862Z,29.37
2018-10-17T19:07:26.572Z,28.83
2018-10-17T19:09:54.334Z,26.30
2018-10-17T19:12:22.107Z,28.97
2018-10-17T19:14:49.838Z,28.60
2018-10-17T19:17:17.546Z,27.00
2018-10-17T19:19:45.258Z,30.83
2018-10-17T19:22:13.023Z,24.13
2018-10-17T19:24:40.845Z,20.43
2018-10-17T19:27:08.662Z,22.93
2018-10-17T19:29:36.360Z,21.23
2018-10-17T19:32:04.238Z,20.97
2018-10-17T19:34:31.954Z,20.33
2018-10-17T19:36:59.693Z,20.97
2018-10-17T19:39:27.417Z,22.17
2018-10-17T19:41:55.194Z,19.50
2018-10-17T19:44:22.926Z,23.80
2018-10-17T19:46:50.674Z,22.13
2018-10-17T19:49:18.418Z,22.20
2018-10-17T19:51:46.152Z,22.07
2018-10-17T19:54:13.870Z,25.03
2018-10-17T19:56:41.669Z,25.07
2018-10-17T19:59:09.377Z,27.87
2018-10-17T20:01:37.162Z,28.37
2018-10-17T20:04:05.120Z,25.60
2018-10-17T20:06:32.874Z,25.00
2018-10-17T20:09:00.649Z,19.43
2018-10-17T20:11:28.366Z,27.17
2018-10-17T20:13:56.081Z,23.80
2018-10-17T20:16:23.823Z,22.47
2018-10-17T20:18:51.530Z,18.97
2018-10-17T20:21:19.309Z,25.13
2018-10-17T20:23:47.019Z,20.50
2018-10-17T20:26:14.803Z,20.33
2018-10-17T20:28:42.520Z,19.13
2018-10-17T20:31:10.267Z,20.67
2018-10-17T20:33:38.001Z,23.83
2018-10-17T20:36:06.039Z,22.47
2018-10-17T20:38:34.082Z,20.30
2018-10-17T20:41:01.766Z,18.83
2018-10-17T20:43:29.473Z,21.57
2018-10-17T20:45:57.202Z,21.47
2018-10-17T20:48:24.892Z,16.77
2018-10-17T20:50:52.593Z,15.07
2018-10-17T20:53:20.314Z,14.73
2018-10-17T20:55:48.075Z,21.10
2018-10-17T20:58:15.890Z,20.23
2018-10-17T21:00:43.571Z,20.43
2018-10-17T21:03:11.303Z,16.67
2018-10-17T21:05:39.026Z,15.33
2018-10-17T21:08:06.737Z,16.77
2018-10-17T21:10:34.462Z,18.27
2018-10-17T21:13:02.270Z,17.67
2018-10-17T21:15:29.977Z,20.57
2018-10-17T21:17:57.714Z,16.57
2018-10-17T21:20:25.414Z,18.13
2018-10-17T21:22:53.130Z,22.20
2018-10-17T21:25:20.838Z,20.10
2018-10-17T21:27:48.589Z,22.07
2018-10-17T21:30:16.421Z,16.83
2018-10-17T21:32:44.136Z,23.30
2018-10-17T21:35:11.845Z,20.97
2018-10-17T21:37:39.577Z,19.73
2018-10-17T21:40:07.301Z,24.13
2018-10-17T21:42:35.007Z,20.93
2018-10-17T21:45:02.784Z,17.70
2018-10-17T21:47:30.615Z,21.23
2018-10-17T21:49:58.243Z,19.97
2018-10-17T21:52:25.947Z,20.67
2018-10-17T21:54:53.667Z,16.97
2018-10-17T21:57:22.512Z,20.37
2018-10-17T21:59:50.225Z,20.27
2018-10-17T22:02:17.980Z,15.77
2018-10-17T22:04:45.721Z,18.50
2018-10-17T22:07:13.442Z,18.00
2018-10-17T22:09:41.343Z,19.17
2018-10-17T22:12:09.086Z,24.13
2018-10-17T22:14:36.821Z,21.57
2018-10-17T22:17:06.574Z,15.37
2018-10-17T22:19:35.368Z,17.97
2018-10-17T22:22:03.129Z,16.80
2018-10-17T22:24:30.866Z,17.33
2018-10-17T22:26:58.596Z,18.33
2018-10-17T22:29:26.346Z,12.40
2018-10-17T22:31:54.142Z,18.17
2018-10-17T22:34:21.967Z,21.30
2018-10-17T22:36:49.701Z,20.53
2018-10-17T22:39:17.412Z,17.23
2018-10-17T22:41:45.530Z,17.43
2018-10-17T22:44:13.308Z,17.03
2018-10-17T22:46:41.469Z,14.47
2018-10-17T22:49:10.057Z,15.23
2018-10-17T22:51:38.421Z,15.87
2018-10-17T22:54:06.822Z,13.27
2018-10-17T22:56:34.536Z,16.17
2018-10-17T22:59:02.254Z,15.43
2018-10-17T23:01:29.955Z,14.40
2018-10-17T23:03:57.675Z,13.27
2018-10-17T23:06:25.405Z,14.33
2018-10-17T23:08:53.176Z,16.67
2018-10-17T23:11:20.898Z,15.20
2018-10-17T23:13:48.643Z,12.53
2018-10-17T23:16:16.378Z,13.93
2018-10-17T23:18:44.085Z,15.90
2018-10-17T23:21:11.793Z,17.87
2018-10-17T23:23:39.527Z,16.67
2018-10-17T23:26:07.649Z,16.77
2018-10-17T23:28:35.610Z,14.90
2018-10-17T23:31:03.407Z,17.23
2018-10-17T23:33:31.147Z,15.97
2018-10-17T23:35:58.852Z,16.43
2018-10-17T23:38:26.571Z,14.77
2018-10-17T23:40:54.274Z,14.60
2018-10-17T23:43:22.002Z,16.73
2018-10-17T23:45:49.707Z,12.83
2018-10-17T23:48:17.481Z,18.20
2018-10-17T23:50:45.171Z,14.00
2018-10-17T23:53:12.878Z,14.57
2018-10-17T23:55:40.627Z,11.87
2018-10-17T23:58:08.385Z,16.20
